Time;durP1;ratioP1;P1;durP2;ratioP2;P2;SDS_P1;SDS_P2;PMS_P1;PMS_P2;Temp;Humidity;BMP_temperature;BMP_pressure;BME280_temperature;BME280_humidity;BME280_pressure;Samples;Min_cycle;Max_cycle;Signal;HPM_P1;HPM_P2
2022/11/04 00:01:57;;;;;;;2.40;2.20;;;;;;;;;;4923044;29;20263;-53
2022/11/04 00:04:25;;;;;;;2.70;2.27;;;;;;;;;;4926901;29;20205;-53
2022/11/04 00:06:51;;;;;;;2.50;2.23;;;;;;;;;;4916543;29;20249;-53
2022/11/04 00:09:19;;;;;;;2.43;2.23;;;;;;;;;;4896044;29;20194;-53
2022/11/04 00:14:30;;;;;;;2.10;2.00;;;;;;;;;;4925597;29;20588;-53
2022/11/04 00:30:53;;;;;;;1.93;1.83;;;;;;;;;;4913463;29;20271;-53
2022/11/04 00:33:25;;;;;;;1.67;1.57;;;;;;;;;;4890918;29;20633;-53
2022/11/04 00:35:55;;;;;;;1.93;1.80;;;;;;;;;;4920495;29;20191;-53
2022/11/04 00:38:22;;;;;;;3.63;1.80;;;;;;;;;;4927067;29;20187;-53
2022/11/04 00:40:48;;;;;;;2.43;2.20;;;;;;;;;;4924274;28;20232;-53
2022/11/04 00:43:14;;;;;;;1.80;1.70;;;;;;;;;;4927058;29;20620;-53
2022/11/04 00:45:41;;;;;;;1.97;1.80;;;;;;;;;;4916102;29;20205;-53
2022/11/04 00:48:07;;;;;;;1.87;1.77;;;;;;;;;;4926023;29;20204;-53
2022/11/04 00:50:34;;;;;;;1.90;1.80;;;;;;;;;;4924516;29;20181;-53
2022/11/04 00:53:00;;;;;;;1.70;1.60;;;;;;;;;;4926809;29;20181;-53
2022/11/04 00:55:26;;;;;;;1.83;1.73;;;;;;;;;;4924301;29;20569;-53
2022/11/04 00:57:52;;;;;;;2.00;1.90;;;;;;;;;;4928682;29;20166;-53
2022/11/04 01:00:19;;;;;;;1.90;1.80;;;;;;;;;;4918873;29;20567;-53
2022/11/04 01:02:45;;;;;;;2.07;1.97;;;;;;;;;;4930544;29;20162;-53
2022/11/04 01:05:11;;;;;;;2.10;1.90;;;;;;;;;;4923384;29;20626;-53
2022/11/04 01:07:37;;;;;;;1.80;1.70;;;;;;;;;;4909315;29;20182;-53
2022/11/04 01:10:04;;;;;;;1.83;1.73;;;;;;;;;;4903785;29;20189;-53
2022/11/04 01:12:30;;;;;;;1.90;1.80;;;;;;;;;;4930333;29;20292;-53
2022/11/04 01:14:56;;;;;;;2.23;2.03;;;;;;;;;;4922779;29;20185;-53
2022/11/04 01:17:22;;;;;;;5.00;1.90;;;;;;;;;;4927468;29;20196;-53
2022/11/04 01:19:48;;;;;;;3.00;2.30;;;;;;;;;;4929583;29;20209;-53
2022/11/04 01:22:14;;;;;;;2.20;2.00;;;;;;;;;;4925714;29;20825;-53
2022/11/04 01:24:40;;;;;;;2.07;1.93;;;;;;;;;;4929864;29;20196;-53
2022/11/04 01:27:06;;;;;;;2.17;1.73;;;;;;;;;;4921699;29;20187;-53
2022/11/04 01:29:32;;;;;;;2.10;1.90;;;;;;;;;;4926939;29;20181;-53
2022/11/04 01:31:58;;;;;;;2.00;1.90;;;;;;;;;;4927350;29;20259;-53
2022/11/04 01:34:24;;;;;;;2.30;2.10;;;;;;;;;;4930169;29;20161;-53
2022/11/04 01:36:50;;;;;;;2.20;2.00;;;;;;;;;;4926589;29;20491;-53
2022/11/04 01:39:16;;;;;;;2.20;2.00;;;;;;;;;;4922447;29;20627;-53
2022/11/04 01:41:42;;;;;;;2.13;1.93;;;;;;;;;;4901158;28;20256;-53
2022/11/04 01:44:27;;;;;;;2.00;1.90;;;;;;;;;;4902645;29;20185;-53
2022/11/04 01:46:53;;;;;;;2.23;2.13;;;;;;;;;;4922386;29;20567;-53
2022/11/04 01:49:25;;;;;;;2.20;2.10;;;;;;;;;;4927404;29;20637;-53
2022/11/04 01:51:53;;;;;;;3.50;1.90;;;;;;;;;;4927006;29;20185;-53
2022/11/04 01:54:19;;;;;;;2.30;2.10;;;;;;;;;;4928250;29;20643;-53
2022/11/04 01:56:47;;;;;;;2.03;1.93;;;;;;;;;;4924703;29;20213;-53
2022/11/04 01:59:20;;;;;;;2.23;2.10;;;;;;;;;;4926748;29;20212;-53
2022/11/04 02:01:46;;;;;;;2.30;2.10;;;;;;;;;;4925442;29;20178;-53
2022/11/04 02:04:25;;;;;;;2.53;2.33;;;;;;;;;;4915450;29;20643;-53
2022/11/04 02:06:56;;;;;;;2.60;2.40;;;;;;;;;;4919540;29;20189;-53
2022/11/04 02:09:23;;;;;;;2.30;2.10;;;;;;;;;;4925911;29;20437;-53
2022/11/04 02:14:34;;;;;;;2.20;2.00;;;;;;;;;;4925436;29;20217;-53
2022/11/04 02:17:24;;;;;;;2.47;2.27;;;;;;;;;;4909353;29;20185;-54
2022/11/04 02:20:05;;;;;;;2.23;2.13;;;;;;;;;;4891773;29;20233;-53
2022/11/04 02:22:50;;;;;;;2.77;2.13;;;;;;;;;;4928826;29;20189;-54
2022/11/04 02:25:36;;;;;;;2.40;2.20;;;;;;;;;;4924493;29;20197;-53
2022/11/04 02:28:25;;;;;;;2.40;2.20;;;;;;;;;;4928149;29;20187;-53
2022/11/04 02:31:17;;;;;;;2.83;2.17;;;;;;;;;;4919532;29;20181;-53
2022/11/04 02:33:53;;;;;;;2.47;2.27;;;;;;;;;;4924418;29;20221;-53
2022/11/04 02:36:38;;;;;;;2.53;2.20;;;;;;;;;;4923625;29;20196;-53
2022/11/04 02:39:26;;;;;;;3.80;2.77;;;;;;;;;;4908893;29;20818;-53
2022/11/04 02:41:56;;;;;;;2.50;2.30;;;;;;;;;;4924267;28;20713;-53
2022/11/04 02:44:34;;;;;;;2.07;1.87;;;;;;;;;;4923570;29;20363;-53
2022/11/04 02:47:03;;;;;;;2.57;2.10;;;;;;;;;;4924921;29;20252;-53
2022/11/04 02:49:40;;;;;;;2.47;2.10;;;;;;;;;;4928340;29;20192;-53
2022/11/04 02:52:06;;;;;;;2.10;2.00;;;;;;;;;;4924082;29;20188;-53
2022/11/04 02:54:35;;;;;;;2.30;2.00;;;;;;;;;;4929080;29;20269;-53
2022/11/04 02:57:03;;;;;;;1.90;1.80;;;;;;;;;;4926326;29;20237;-53
2022/11/04 02:59:34;;;;;;;2.60;2.07;;;;;;;;;;4926111;29;20521;-53
2022/11/04 03:02:03;;;;;;;2.03;1.90;;;;;;;;;;4925437;29;20248;-53
2022/11/04 03:04:31;;;;;;;2.97;1.93;;;;;;;;;;4928740;29;20189;-53
2022/11/04 03:06:58;;;;;;;2.77;2.23;;;;;;;;;;4922498;29;20173;-53
2022/11/04 03:09:25;;;;;;;2.47;2.20;;;;;;;;;;4927649;29;20189;-53
2022/11/04 03:11:54;;;;;;;2.97;2.30;;;;;;;;;;4926398;29;20193;-53
2022/11/04 03:14:26;;;;;;;2.60;2.10;;;;;;;;;;4926075;29;20185;-53
2022/11/04 03:16:53;;;;;;;4.20;2.30;;;;;;;;;;4899338;29;20196;-53
2022/11/04 03:19:49;;;;;;;3.83;2.73;;;;;;;;;;4915780;29;20221;-53
2022/11/04 03:22:19;;;;;;;2.27;2.07;;;;;;;;;;4897369;29;20193;-53
2022/11/04 03:24:46;;;;;;;2.03;1.87;;;;;;;;;;4926714;29;20432;-53
2022/11/04 03:27:15;;;;;;;2.33;2.07;;;;;;;;;;4920062;29;20667;-53
2022/11/04 03:29:49;;;;;;;4.27;2.50;;;;;;;;;;4926390;29;20181;-53
2022/11/04 03:32:18;;;;;;;1.90;1.80;;;;;;;;;;4914189;29;20176;-53
2022/11/04 03:34:44;;;;;;;2.20;2.10;;;;;;;;;;4910865;29;20232;-53
2022/11/04 03:37:10;;;;;;;2.30;2.10;;;;;;;;;;4927544;29;20205;-53
2022/11/04 03:39:37;;;;;;;2.27;2.07;;;;;;;;;;4926613;29;20216;-53
2022/11/04 03:42:18;;;;;;;2.17;1.93;;;;;;;;;;4921410;28;20754;-53
2022/11/04 03:44:59;;;;;;;2.27;2.07;;;;;;;;;;4927844;29;20215;-53
2022/11/04 03:47:26;;;;;;;2.00;1.90;;;;;;;;;;4926683;29;20618;-53
2022/11/04 03:49:58;;;;;;;2.20;1.80;;;;;;;;;;4927942;29;20510;-53
2022/11/04 03:52:24;;;;;;;3.10;2.07;;;;;;;;;;4924871;29;20186;-53
2022/11/04 03:54:50;;;;;;;2.10;1.90;;;;;;;;;;4927175;29;20189;-53
2022/11/04 03:57:23;;;;;;;2.57;2.00;;;;;;;;;;4919928;29;20268;-53
2022/11/04 04:00:00;;;;;;;2.30;2.10;;;;;;;;;;4902158;29;20387;-53
2022/11/04 04:02:30;;;;;;;2.37;1.87;;;;;;;;;;4914566;29;20173;-53
2022/11/04 04:04:59;;;;;;;1.97;1.87;;;;;;;;;;4910905;29;21070;-53
2022/11/04 04:07:37;;;;;;;2.00;1.90;;;;;;;;;;4924568;29;20239;-54
2022/11/04 04:10:37;;;;;;;2.13;2.00;;;;;;;;;;4922964;29;20303;-54
2022/11/04 04:12:54;;;;;;;1.73;1.63;;;;;;;;;;4926688;29;20281;-53
2022/11/04 04:15:23;;;;;;;2.37;2.17;;;;;;;;;;4921679;29;20204;-53
2022/11/04 04:17:58;;;;;;;2.47;2.37;;;;;;;;;;4924664;29;20252;-53
2022/11/04 04:20:26;;;;;;;3.73;2.27;;;;;;;;;;4925419;29;20259;-53
2022/11/04 04:22:55;;;;;;;4.97;2.10;;;;;;;;;;4914841;29;20484;-53
2022/11/04 04:28:09;;;;;;;3.30;2.73;;;;;;;;;;4926296;29;20511;-53
2022/11/04 04:30:35;;;;;;;3.07;2.10;;;;;;;;;;4921054;29;20185;-53
2022/11/04 04:33:07;;;;;;;2.17;1.77;;;;;;;;;;4921961;29;20528;-53
2022/11/04 04:35:40;;;;;;;3.10;2.03;;;;;;;;;;4930890;29;20184;-53
2022/11/04 04:46:29;;;;;;;2.30;2.00;;;;;;;;;;4930751;29;20714;-53
2022/11/04 04:48:55;;;;;;;4.27;2.50;;;;;;;;;;4931957;29;20189;-53
2022/11/04 04:51:22;;;;;;;3.03;1.80;;;;;;;;;;4931209;29;20265;-53
2022/11/04 04:53:48;;;;;;;3.63;2.10;;;;;;;;;;4928022;29;20188;-53
2022/11/04 04:56:14;;;;;;;2.77;2.07;;;;;;;;;;4929738;29;20208;-53
2022/11/04 04:58:40;;;;;;;3.57;2.13;;;;;;;;;;4926439;29;20182;-53
2022/11/04 05:01:07;;;;;;;2.20;2.00;;;;;;;;;;4925166;29;20704;-54
2022/11/04 05:03:33;;;;;;;2.70;2.23;;;;;;;;;;4933143;29;20617;-53
2022/11/04 05:05:59;;;;;;;2.40;2.20;;;;;;;;;;4932593;29;20323;-53
2022/11/04 05:08:25;;;;;;;3.40;2.33;;;;;;;;;;4931628;29;20529;-53
2022/11/04 05:10:51;;;;;;;4.27;1.90;;;;;;;;;;4914815;29;21040;-53
2022/11/04 05:13:28;;;;;;;3.20;2.07;;;;;;;;;;4933481;29;20679;-53
2022/11/04 05:15:54;;;;;;;2.13;1.93;;;;;;;;;;4930191;29;20201;-53
2022/11/04 05:18:20;;;;;;;1.73;1.63;;;;;;;;;;4916045;29;20188;-53
2022/11/04 05:20:47;;;;;;;3.93;1.73;;;;;;;;;;4933161;29;20565;-53
2022/11/04 05:23:13;;;;;;;5.03;4.63;;;;;;;;;;4930817;29;20463;-53
2022/11/04 05:25:40;;;;;;;3.50;2.40;;;;;;;;;;4928562;29;20204;-53
2022/11/04 05:28:06;;;;;;;2.43;2.10;;;;;;;;;;4931569;29;20592;-53
2022/11/04 05:30:32;;;;;;;2.00;1.80;;;;;;;;;;4932262;29;20299;-53
2022/11/04 05:32:59;;;;;;;2.47;1.90;;;;;;;;;;4935285;29;20240;-53
2022/11/04 05:35:25;;;;;;;2.53;1.73;;;;;;;;;;4933289;29;20573;-53
2022/11/04 05:37:51;;;;;;;1.93;1.83;;;;;;;;;;4928577;29;20778;-53
2022/11/04 05:40:17;;;;;;;4.63;2.17;;;;;;;;;;4922599;28;20648;-53
2022/11/04 05:42:43;;;;;;;1.90;1.80;;;;;;;;;;4912856;29;20208;-53
2022/11/04 05:45:09;;;;;;;4.77;2.30;;;;;;;;;;4916176;29;20532;-53
2022/11/04 05:47:35;;;;;;;3.20;1.83;;;;;;;;;;4916215;29;20210;-52
2022/11/04 05:50:01;;;;;;;2.83;2.47;;;;;;;;;;4901164;29;20249;-53
2022/11/04 05:52:27;;;;;;;3.73;3.43;;;;;;;;;;4921993;29;20185;-53
2022/11/04 05:54:53;;;;;;;2.50;2.07;;;;;;;;;;4923920;29;20279;-53
2022/11/04 05:57:20;;;;;;;2.63;2.20;;;;;;;;;;4922392;29;20198;-53
2022/11/04 05:59:46;;;;;;;2.53;1.80;;;;;;;;;;4922377;29;20731;-53
2022/11/04 06:02:12;;;;;;;3.30;2.00;;;;;;;;;;4915552;29;20658;-53
2022/11/04 06:04:38;;;;;;;1.87;1.63;;;;;;;;;;4930179;29;20200;-53
2022/11/04 06:07:04;;;;;;;2.10;2.00;;;;;;;;;;4929649;29;20539;-53
2022/11/04 06:09:39;;;;;;;2.70;2.10;;;;;;;;;;4922605;29;20642;-53
2022/11/04 06:12:06;;;;;;;3.20;2.50;;;;;;;;;;4926508;29;20633;-53
2022/11/04 06:14:32;;;;;;;3.33;2.10;;;;;;;;;;4927895;29;20197;-53
2022/11/04 06:16:59;;;;;;;3.83;2.43;;;;;;;;;;4925781;29;20188;-55
2022/11/04 06:19:25;;;;;;;4.60;2.40;;;;;;;;;;4930222;29;20165;-53
2022/11/04 06:21:52;;;;;;;2.60;2.30;;;;;;;;;;4913622;29;20527;-53
2022/11/04 06:24:18;;;;;;;2.73;2.17;;;;;;;;;;4929104;29;20692;-53
2022/11/04 06:26:44;;;;;;;3.50;2.30;;;;;;;;;;4922879;29;20658;-53
2022/11/04 06:29:10;;;;;;;2.00;1.90;;;;;;;;;;4910605;29;20637;-53
2022/11/04 06:31:37;;;;;;;3.23;2.53;;;;;;;;;;4918613;29;20562;-54
2022/11/04 06:34:03;;;;;;;2.73;2.00;;;;;;;;;;4926573;29;20188;-53
2022/11/04 06:36:29;;;;;;;2.43;2.10;;;;;;;;;;4921711;29;20314;-53
2022/11/04 06:38:55;;;;;;;3.53;2.37;;;;;;;;;;4910454;29;20293;-53
2022/11/04 06:41:21;;;;;;;2.70;2.50;;;;;;;;;;4927603;28;20224;-53
2022/11/04 06:43:47;;;;;;;2.23;2.10;;;;;;;;;;4908828;29;20551;-53
2022/11/04 06:46:27;;;;;;;2.80;2.20;;;;;;;;;;4924640;29;20645;-52
2022/11/04 06:48:54;;;;;;;2.30;2.20;;;;;;;;;;4916213;29;20644;-53
2022/11/04 06:51:20;;;;;;;3.20;2.67;;;;;;;;;;4925537;29;20668;-53
2022/11/04 06:53:46;;;;;;;2.93;2.50;;;;;;;;;;4929018;29;20201;-53
2022/11/04 06:56:12;;;;;;;2.20;2.00;;;;;;;;;;4917445;29;20177;-53
2022/11/04 06:58:38;;;;;;;3.97;3.03;;;;;;;;;;4913949;29;20276;-53
2022/11/04 07:01:04;;;;;;;2.50;2.30;;;;;;;;;;4929641;29;20268;-53
2022/11/04 07:03:30;;;;;;;2.30;2.10;;;;;;;;;;4929158;29;20160;-53
2022/11/04 07:05:56;;;;;;;4.13;2.50;;;;;;;;;;4916676;29;20179;-53
2022/11/04 07:08:22;;;;;;;4.70;2.20;;;;;;;;;;4911653;29;20204;-53
2022/11/04 07:10:48;;;;;;;3.43;2.20;;;;;;;;;;4916969;29;20696;-53
2022/11/04 07:13:16;;;;;;;2.83;1.90;;;;;;;;;;4926669;29;20536;-53
2022/11/04 07:15:42;;;;;;;3.37;2.30;;;;;;;;;;4927113;29;20209;-53
2022/11/04 07:18:08;;;;;;;2.00;1.77;;;;;;;;;;4928455;29;20173;-53
2022/11/04 07:20:36;;;;;;;2.53;1.80;;;;;;;;;;4931288;29;20204;-53
2022/11/04 07:23:02;;;;;;;3.23;2.00;;;;;;;;;;4916763;29;20510;-53
2022/11/04 07:25:28;;;;;;;3.20;2.67;;;;;;;;;;4925622;29;20512;-53
2022/11/04 07:27:54;;;;;;;2.93;2.63;;;;;;;;;;4907306;29;20185;-53
2022/11/04 07:30:20;;;;;;;2.30;2.10;;;;;;;;;;4927941;29;20382;-53
2022/11/04 07:32:46;;;;;;;2.13;1.93;;;;;;;;;;4924293;29;20679;-53
2022/11/04 07:35:12;;;;;;;2.93;2.03;;;;;;;;;;4931184;29;20173;-53
2022/11/04 07:37:39;;;;;;;3.30;2.47;;;;;;;;;;4909623;29;20185;-53
2022/11/04 07:40:05;;;;;;;4.10;2.17;;;;;;;;;;4926203;29;20578;-53
2022/11/04 07:42:32;;;;;;;4.70;2.20;;;;;;;;;;4928493;28;20308;-53
2022/11/04 07:44:58;;;;;;;2.67;2.17;;;;;;;;;;4927568;29;20181;-53
2022/11/04 07:47:24;;;;;;;3.10;2.20;;;;;;;;;;4924953;29;20223;-53
2022/11/04 07:49:50;;;;;;;3.50;2.20;;;;;;;;;;4928015;29;20181;-53
2022/11/04 07:52:16;;;;;;;2.90;2.07;;;;;;;;;;4924911;29;20193;-53
2022/11/04 07:54:42;;;;;;;3.47;2.17;;;;;;;;;;4924831;29;20204;-53
2022/11/04 07:57:08;;;;;;;2.00;1.80;;;;;;;;;;4915265;29;20469;-53
2022/11/04 07:59:34;;;;;;;3.87;2.33;;;;;;;;;;4907195;29;20676;-53
2022/11/04 08:02:00;;;;;;;3.00;2.20;;;;;;;;;;4919563;29;20241;-53
2022/11/04 08:04:26;;;;;;;2.83;2.03;;;;;;;;;;4922172;29;20184;-55
2022/11/04 08:06:52;;;;;;;2.00;1.90;;;;;;;;;;4916210;29;20674;-53
2022/11/04 08:09:18;;;;;;;3.27;1.80;;;;;;;;;;4925958;29;20277;-53
2022/11/04 08:11:44;;;;;;;3.83;2.23;;;;;;;;;;4926267;29;20260;-53
2022/11/04 08:14:10;;;;;;;3.33;2.40;;;;;;;;;;4922792;29;20298;-53
2022/11/04 08:16:36;;;;;;;2.63;2.20;;;;;;;;;;4922590;29;20174;-53
2022/11/04 08:19:03;;;;;;;4.37;2.30;;;;;;;;;;4917385;29;20224;-53
2022/11/04 08:21:30;;;;;;;2.30;2.20;;;;;;;;;;4922244;29;20208;-53
2022/11/04 08:23:56;;;;;;;3.90;2.10;;;;;;;;;;4910558;29;20753;-53
2022/11/04 08:26:22;;;;;;;2.43;2.23;;;;;;;;;;4940198;29;20189;-53
2022/11/04 08:28:49;;;;;;;2.70;2.27;;;;;;;;;;4927623;29;20154;-53
2022/11/04 08:31:20;;;;;;;3.57;2.47;;;;;;;;;;4924559;29;20196;-53
2022/11/04 08:33:46;;;;;;;3.43;2.20;;;;;;;;;;4924756;29;20177;-53
2022/11/04 08:36:15;;;;;;;3.83;2.27;;;;;;;;;;4925042;29;20525;-53
2022/11/04 08:38:41;;;;;;;2.27;2.00;;;;;;;;;;4899508;29;20189;-53
2022/11/04 08:41:08;;;;;;;3.07;2.03;;;;;;;;;;4892351;28;20260;-53
2022/11/04 08:43:35;;;;;;;3.13;2.17;;;;;;;;;;4912598;29;20181;-53
2022/11/04 08:46:01;;;;;;;2.30;2.10;;;;;;;;;;4909125;29;20244;-53
2022/11/04 08:48:27;;;;;;;2.37;2.10;;;;;;;;;;4913168;29;20678;-53
2022/11/04 08:50:55;;;;;;;2.63;1.90;;;;;;;;;;4915756;29;20716;-53
2022/11/04 08:53:24;;;;;;;2.40;1.93;;;;;;;;;;4925147;29;20185;-53
2022/11/04 08:55:50;;;;;;;4.40;3.03;;;;;;;;;;4924028;29;20525;-53
2022/11/04 08:58:16;;;;;;;3.50;2.10;;;;;;;;;;4909493;29;20575;-54
2022/11/04 09:00:42;;;;;;;3.73;2.63;;;;;;;;;;4922344;29;20216;-53
2022/11/04 09:03:08;;;;;;;2.30;2.10;;;;;;;;;;4918126;29;20182;-53
2022/11/04 09:05:42;;;;;;;2.40;2.20;;;;;;;;;;4926486;29;20256;-53
2022/11/04 09:08:15;;;;;;;2.83;2.30;;;;;;;;;;4924266;29;20657;-53
2022/11/04 09:10:42;;;;;;;2.73;2.00;;;;;;;;;;4908058;29;20241;-53
2022/11/04 09:13:10;;;;;;;2.13;1.90;;;;;;;;;;4907922;29;20682;-53
2022/11/04 09:15:36;;;;;;;2.30;2.10;;;;;;;;;;4909434;29;20182;-53
2022/11/04 09:18:02;;;;;;;2.73;2.53;;;;;;;;;;4916973;29;20629;-53
2022/11/04 09:20:28;;;;;;;3.17;2.37;;;;;;;;;;4916922;29;20273;-53
2022/11/04 09:22:55;;;;;;;2.87;2.50;;;;;;;;;;4919348;29;20182;-53
2022/11/04 09:25:21;;;;;;;3.40;2.57;;;;;;;;;;4919841;29;20590;-53
2022/11/04 09:27:47;;;;;;;2.60;2.33;;;;;;;;;;4920168;29;20178;-53
2022/11/04 09:30:13;;;;;;;2.90;2.13;;;;;;;;;;4918742;29;20265;-54
2022/11/04 09:32:39;;;;;;;4.13;2.63;;;;;;;;;;4919566;29;20182;-54
2022/11/04 09:35:05;;;;;;;3.93;2.20;;;;;;;;;;4919096;29;20246;-54
2022/11/04 09:37:38;;;;;;;3.47;2.37;;;;;;;;;;4904203;29;20245;-53
2022/11/04 09:40:05;;;;;;;2.67;2.40;;;;;;;;;;4917836;29;20237;-54
2022/11/04 09:42:31;;;;;;;3.97;2.43;;;;;;;;;;4923200;28;20348;-53
2022/11/04 09:45:00;;;;;;;4.03;2.60;;;;;;;;;;4919920;29;20659;-53
2022/11/04 09:47:26;;;;;;;3.10;2.40;;;;;;;;;;4916080;29;20695;-54
2022/11/04 09:49:56;;;;;;;3.20;2.27;;;;;;;;;;4919969;29;20178;-53
2022/11/04 09:52:31;;;;;;;4.17;2.40;;;;;;;;;;4924546;29;21034;-54
2022/11/04 09:55:05;;;;;;;2.33;2.00;;;;;;;;;;4926306;29;20263;-53
2022/11/04 09:57:32;;;;;;;2.93;2.00;;;;;;;;;;4920365;29;20707;-53
2022/11/04 09:59:58;;;;;;;2.10;1.83;;;;;;;;;;4918552;29;20853;-53
2022/11/04 10:02:34;;;;;;;2.10;1.83;;;;;;;;;;4917117;29;20598;-53
2022/11/04 10:05:19;;;;;;;2.47;2.27;;;;;;;;;;4918743;29;20273;-53
2022/11/04 10:07:57;;;;;;;2.87;2.30;;;;;;;;;;4917124;29;20228;-53
2022/11/04 10:10:38;;;;;;;3.17;2.43;;;;;;;;;;4917137;29;20211;-53
2022/11/04 10:13:13;;;;;;;3.27;2.70;;;;;;;;;;4920328;29;21126;-53
2022/11/04 10:15:46;;;;;;;4.17;2.10;;;;;;;;;;4917720;29;20178;-53
2022/11/04 10:18:31;;;;;;;3.97;2.47;;;;;;;;;;4916909;29;20213;-53
2022/11/04 10:21:06;;;;;;;4.30;2.43;;;;;;;;;;4917259;29;20352;-54
2022/11/04 10:23:32;;;;;;;3.87;2.00;;;;;;;;;;4919533;29;20188;-53
2022/11/04 10:26:01;;;;;;;3.80;3.07;;;;;;;;;;4918006;29;20240;-53
2022/11/04 10:28:34;;;;;;;2.93;2.63;;;;;;;;;;4918984;29;20669;-53
2022/11/04 10:31:02;;;;;;;4.83;2.37;;;;;;;;;;4917457;29;20201;-53
2022/11/04 10:33:28;;;;;;;3.90;2.23;;;;;;;;;;4920144;29;20635;-53
2022/11/04 10:35:57;;;;;;;3.13;2.20;;;;;;;;;;4916519;29;20185;-53
2022/11/04 10:38:29;;;;;;;3.00;2.43;;;;;;;;;;4923823;29;20192;-53
2022/11/04 10:40:56;;;;;;;4.60;2.37;;;;;;;;;;4925963;28;20827;-53
2022/11/04 10:43:31;;;;;;;4.07;2.00;;;;;;;;;;4928703;29;20256;-53
2022/11/04 10:46:22;;;;;;;5.10;2.20;;;;;;;;;;4924278;29;20197;-52
2022/11/04 10:48:51;;;;;;;3.37;2.53;;;;;;;;;;4928467;29;20537;-53
2022/11/04 10:51:22;;;;;;;5.23;2.27;;;;;;;;;;4928978;29;20162;-52
2022/11/04 10:53:56;;;;;;;3.80;2.10;;;;;;;;;;4927047;29;20308;-53
2022/11/04 10:56:28;;;;;;;3.03;2.77;;;;;;;;;;4927381;29;20185;-53
2022/11/04 10:58:55;;;;;;;3.90;1.90;;;;;;;;;;4928911;29;20284;-53
2022/11/04 11:01:23;;;;;;;3.70;2.50;;;;;;;;;;4926993;29;20205;-53
2022/11/04 11:03:49;;;;;;;2.20;2.00;;;;;;;;;;4928235;29;20186;-53
2022/11/04 11:06:19;;;;;;;2.30;2.10;;;;;;;;;;4927859;29;20165;-53
2022/11/04 11:08:45;;;;;;;3.87;2.23;;;;;;;;;;4928429;29;20185;-53
2022/11/04 11:11:13;;;;;;;4.57;2.27;;;;;;;;;;4926474;29;20180;-53
2022/11/04 11:13:40;;;;;;;3.07;2.40;;;;;;;;;;4926892;29;20276;-53
2022/11/04 11:16:06;;;;;;;3.60;2.70;;;;;;;;;;4902664;29;20186;-53
2022/11/04 11:18:32;;;;;;;3.10;2.20;;;;;;;;;;4923658;29;20495;-53
2022/11/04 11:21:12;;;;;;;4.73;2.77;;;;;;;;;;4914776;29;20309;-53
2022/11/04 11:23:38;;;;;;;4.20;2.80;;;;;;;;;;4912334;29;20177;-53
2022/11/04 11:26:06;;;;;;;4.97;2.90;;;;;;;;;;4927972;29;20949;-53
2022/11/04 11:28:36;;;;;;;3.27;2.73;;;;;;;;;;4924064;29;20204;-53
2022/11/04 11:31:07;;;;;;;3.53;2.57;;;;;;;;;;4904933;29;20200;-53
2022/11/04 11:33:35;;;;;;;3.07;2.60;;;;;;;;;;4928689;29;20507;-53
2022/11/04 11:36:11;;;;;;;4.30;2.13;;;;;;;;;;4927183;29;20589;-53
2022/11/04 11:38:39;;;;;;;5.23;2.90;;;;;;;;;;4927006;29;20766;-53
2022/11/04 11:41:17;;;;;;;5.23;3.47;;;;;;;;;;4928742;28;20233;-53
2022/11/04 11:43:50;;;;;;;4.07;2.37;;;;;;;;;;4908286;29;20260;-53
2022/11/04 11:46:23;;;;;;;3.27;2.30;;;;;;;;;;4917078;29;20284;-54
2022/11/04 11:48:53;;;;;;;3.00;2.50;;;;;;;;;;4924728;29;20712;-53
2022/11/04 11:51:30;;;;;;;3.00;2.60;;;;;;;;;;4922775;29;20268;-53
2022/11/04 11:54:02;;;;;;;5.07;2.57;;;;;;;;;;4915687;29;20185;-54
2022/11/04 11:56:42;;;;;;;3.27;2.73;;;;;;;;;;4926624;29;20679;-53
2022/11/04 11:59:17;;;;;;;3.47;2.60;;;;;;;;;;4922548;29;20181;-53
2022/11/04 12:01:49;;;;;;;3.80;3.13;;;;;;;;;;4926026;29;20204;-53
2022/11/04 12:04:16;;;;;;;4.63;2.90;;;;;;;;;;4927908;29;20169;-53
2022/11/04 12:06:47;;;;;;;3.63;3.13;;;;;;;;;;4927702;29;20594;-53
2022/11/04 12:09:30;;;;;;;3.40;3.13;;;;;;;;;;4910979;29;20483;-53
2022/11/04 12:11:59;;;;;;;4.37;2.87;;;;;;;;;;4927613;29;20197;-53
2022/11/04 12:14:41;;;;;;;3.17;2.50;;;;;;;;;;4916114;29;20268;-53
2022/11/04 12:17:13;;;;;;;4.20;3.10;;;;;;;;;;4927526;29;20514;-53
2022/11/04 12:19:47;;;;;;;5.30;3.00;;;;;;;;;;4925823;29;20320;-53
2022/11/04 12:22:20;;;;;;;3.40;2.93;;;;;;;;;;4925497;29;20188;-53
2022/11/04 12:24:55;;;;;;;3.50;2.80;;;;;;;;;;4909607;29;20178;-53
2022/11/04 12:27:40;;;;;;;2.73;2.47;;;;;;;;;;4891819;29;20169;-53
2022/11/04 12:30:13;;;;;;;6.53;3.07;;;;;;;;;;4919002;29;20181;-53
2022/11/04 12:32:43;;;;;;;6.13;3.37;;;;;;;;;;4914193;29;20212;-53
2022/11/04 12:35:12;;;;;;;5.30;2.93;;;;;;;;;;4925227;29;20836;-53
2022/11/04 12:37:38;;;;;;;3.90;3.60;;;;;;;;;;4927920;29;20237;-53
2022/11/04 12:40:07;;;;;;;5.60;2.70;;;;;;;;;;4927561;29;20610;-53
2022/11/04 12:42:49;;;;;;;3.37;2.67;;;;;;;;;;4929062;28;20228;-53
2022/11/04 12:45:15;;;;;;;6.10;2.70;;;;;;;;;;4925520;29;20625;-53
2022/11/04 12:47:46;;;;;;;5.03;2.90;;;;;;;;;;4926642;29;20739;-53
2022/11/04 12:50:28;;;;;;;5.23;2.97;;;;;;;;;;4926366;29;20458;-53
2022/11/04 12:53:13;;;;;;;3.40;2.70;;;;;;;;;;4918542;29;20186;-53
2022/11/04 12:55:51;;;;;;;3.77;2.80;;;;;;;;;;4925751;29;20216;-53
2022/11/04 12:58:34;;;;;;;3.30;2.90;;;;;;;;;;4929841;29;20177;-52
2022/11/04 13:01:10;;;;;;;4.00;3.00;;;;;;;;;;4911759;29;20209;-53
2022/11/04 13:03:44;;;;;;;3.30;3.00;;;;;;;;;;4931421;29;20181;-53
2022/11/04 13:06:15;;;;;;;6.40;3.30;;;;;;;;;;4929882;29;20170;-52
2022/11/04 13:08:54;;;;;;;3.23;2.87;;;;;;;;;;4928462;29;20157;-53
2022/11/04 13:11:29;;;;;;;4.53;2.93;;;;;;;;;;4912207;29;20495;-52
2022/11/04 13:13:58;;;;;;;3.50;2.67;;;;;;;;;;4931016;29;20663;-53
2022/11/04 13:16:24;;;;;;;4.57;3.50;;;;;;;;;;4928759;29;20267;-52
2022/11/04 13:18:51;;;;;;;5.47;3.00;;;;;;;;;;4924082;29;20200;-53
2022/11/04 13:21:19;;;;;;;5.47;4.83;;;;;;;;;;4919949;29;20698;-53
2022/11/04 13:23:56;;;;;;;7.00;3.13;;;;;;;;;;4924053;29;20613;-53
2022/11/04 13:26:23;;;;;;;4.43;2.67;;;;;;;;;;4901357;29;21055;-52
2022/11/04 13:28:58;;;;;;;6.00;3.13;;;;;;;;;;4928268;29;20184;-53
2022/11/04 13:31:34;;;;;;;3.80;2.93;;;;;;;;;;4920792;29;20271;-53
2022/11/04 13:34:06;;;;;;;4.87;3.60;;;;;;;;;;4922941;29;20216;-52
2022/11/04 13:36:46;;;;;;;5.17;3.10;;;;;;;;;;4926276;29;20520;-52
2022/11/04 13:39:34;;;;;;;4.63;3.20;;;;;;;;;;4930050;29;20569;-53
2022/11/04 13:42:23;;;;;;;5.40;3.30;;;;;;;;;;4931870;28;20213;-53
2022/11/04 13:44:51;;;;;;;7.13;3.07;;;;;;;;;;4920169;29;20858;-52
2022/11/04 13:47:23;;;;;;;5.50;2.87;;;;;;;;;;4929121;29;20699;-53
2022/11/04 13:49:56;;;;;;;3.90;3.00;;;;;;;;;;4913245;29;20585;-52
2022/11/04 13:52:27;;;;;;;4.47;3.27;;;;;;;;;;4930437;29;20162;-52
2022/11/04 13:54:56;;;;;;;4.63;3.23;;;;;;;;;;4926966;29;20699;-53
2022/11/04 13:57:23;;;;;;;4.03;3.50;;;;;;;;;;4911426;29;20162;-53
2022/11/04 14:00:05;;;;;;;7.17;3.10;;;;;;;;;;4911052;29;20185;-52
2022/11/04 14:02:50;;;;;;;5.77;3.27;;;;;;;;;;4924077;29;20177;-53
2022/11/04 14:05:28;;;;;;;6.60;3.10;;;;;;;;;;4928987;29;20161;-53
2022/11/04 14:08:00;;;;;;;5.27;3.10;;;;;;;;;;4930401;29;20675;-53
2022/11/04 14:10:37;;;;;;;6.53;3.50;;;;;;;;;;4929943;29;20201;-52
2022/11/04 14:13:22;;;;;;;3.93;2.90;;;;;;;;;;4929679;29;20893;-52
2022/11/04 14:16:02;;;;;;;6.53;3.40;;;;;;;;;;4892915;29;20285;-52
2022/11/04 14:18:30;;;;;;;8.90;3.10;;;;;;;;;;4911276;29;20272;-52
2022/11/04 14:21:04;;;;;;;4.37;2.70;;;;;;;;;;4910826;29;20190;-52
2022/11/04 14:23:31;;;;;;;6.10;3.30;;;;;;;;;;4911803;29;20162;-52
2022/11/04 14:26:00;;;;;;;5.90;3.47;;;;;;;;;;4910582;29;20226;-53
2022/11/04 14:28:27;;;;;;;5.10;2.97;;;;;;;;;;4928690;29;20172;-53
2022/11/04 14:30:54;;;;;;;4.53;2.80;;;;;;;;;;4909867;29;20544;-53
2022/11/04 14:33:21;;;;;;;7.00;3.43;;;;;;;;;;4926705;29;20189;-53
2022/11/04 14:35:47;;;;;;;7.60;3.50;;;;;;;;;;4929708;29;20195;-53
2022/11/04 14:38:24;;;;;;;6.70;3.67;;;;;;;;;;4929687;29;20201;-53
2022/11/04 14:40:52;;;;;;;4.63;3.03;;;;;;;;;;4911318;29;20300;-53
2022/11/04 14:43:23;;;;;;;4.90;2.73;;;;;;;;;;4930620;28;20235;-53
2022/11/04 14:45:49;;;;;;;3.17;2.80;;;;;;;;;;4925065;29;20205;-52
2022/11/04 14:48:18;;;;;;;3.90;3.10;;;;;;;;;;4910902;29;20194;-53
2022/11/04 14:50:45;;;;;;;5.73;3.27;;;;;;;;;;4910585;29;20169;-52
2022/11/04 14:53:16;;;;;;;4.13;3.00;;;;;;;;;;4921753;29;20185;-53
2022/11/04 14:55:42;;;;;;;4.43;2.57;;;;;;;;;;4927596;29;20203;-53
2022/11/04 14:58:40;;;;;;;7.67;3.33;;;;;;;;;;4925216;29;20184;-52
2022/11/04 15:01:10;;;;;;;8.30;3.87;;;;;;;;;;4848730;29;20663;-52
2022/11/04 15:03:37;;;;;;;6.97;2.73;;;;;;;;;;4859227;29;20262;-52
2022/11/04 15:06:05;;;;;;;5.60;3.87;;;;;;;;;;4918773;29;20213;-53
2022/11/04 15:08:34;;;;;;;4.63;2.90;;;;;;;;;;4929401;29;20297;-52
2022/11/04 15:14:29;;;;;;;7.00;3.67;;;;;;;;;;4917215;29;20200;-52
2022/11/04 15:16:57;;;;;;;4.90;3.17;;;;;;;;;;4898049;29;20392;-53
2022/11/04 15:19:28;;;;;;;5.70;2.43;;;;;;;;;;4894308;29;20201;-52
2022/11/04 15:21:54;;;;;;;7.33;4.20;;;;;;;;;;4916961;29;20213;-53
2022/11/04 15:24:21;;;;;;;4.33;2.70;;;;;;;;;;4892321;29;20189;-53
2022/11/04 15:26:51;;;;;;;4.17;3.03;;;;;;;;;;4909310;29;20276;-53
2022/11/04 15:29:18;;;;;;;6.63;3.37;;;;;;;;;;4918264;29;20190;-53
2022/11/04 15:31:52;;;;;;;5.90;3.17;;;;;;;;;;4918266;29;20186;-53
2022/11/04 15:34:18;;;;;;;6.27;3.40;;;;;;;;;;4915357;29;20188;-54